Pagina principală
METAR-TAF:

METAR-TAF

Aeroporturi :

Roboré, Bolivia

Latitudine: 18-19S, longitudine: 059-46W, elevație: 276 m

Observații meteo curente

Raportul a fost făcut în urmă cu 5 ore și 32 de minute, la 22:00 UTC
Vânt 4 kt de la Nord
Temperatură 33°C
Umiditate 56%
Presiune 1012 hPa
Vizibilitate de 10 km sau mai mult

METAR: SLRB 242200Z 36004KT 9999 NSC 33/23 Q1012

Ora: 23:32 (03:32 UTC)


TAF: lipsă

Observații și prognoze meteo pentru peste 4.000 de aeroporturi (rapoarte METAR și TAF).

Stațiile disponibile sunt reprezentate pe hartă prin puncte galbene și roșii.

Țineți indicatorul mouse-ului pe punctul dorit pentru a vedea denumirea stației.

Apoi, faceți clic pentru a vedea observațiile și prognozele meteorologice.

Pentru a schimba harta: Pentru mărire, faceți clic pe butoanele verzi cu cruce neagră; pentru micșorare, pe butonul verde cu o liniuță; pentru hărți învecinate, pe săgețile verzi.


METAR-TAF: